Time;durP1;ratioP1;P1;durP2;ratioP2;P2;SDS_P1;SDS_P2;PMS_P1;PMS_P2;Temp;Humidity;BMP_temperature;BMP_pressure;BME280_temperature;BME280_humidity;BME280_pressure;Samples;Min_cycle;Max_cycle;Signal;HPM_P1;HPM_P2
2022/06/25 00:01:50;;;;;;;1.33;0.90;;;;;;;21.29;68.28;99139.72;4927598;28;20655;-88
2022/06/25 00:06:59;;;;;;;1.10;1.00;;;;;;;21.41;68.55;99142.50;4950641;29;20066;-88
2022/06/25 00:09:24;;;;;;;2.50;1.13;;;;;;;21.33;68.26;99144.47;4936785;29;20031;-88
2022/06/25 00:14:34;;;;;;;0.90;0.90;;;;;;;21.27;68.52;99139.91;4953937;29;20042;-88
2022/06/25 00:16:59;;;;;;;1.20;1.08;;;;;;;21.25;68.47;99138.47;4927914;29;20386;-89
2022/06/25 00:19:25;;;;;;;1.17;0.98;;;;;;;21.26;68.76;99138.25;4944570;28;20027;-87
2022/06/25 00:21:50;;;;;;;1.38;1.08;;;;;;;21.16;68.69;99137.91;4936986;29;20051;-89
2022/06/25 00:24:16;;;;;;;1.13;1.00;;;;;;;21.11;68.64;99136.94;4946020;29;20402;-89
2022/06/25 00:26:42;;;;;;;2.42;1.20;;;;;;;21.13;68.57;99146.53;4929426;29;20126;-88
2022/06/25 00:29:10;;;;;;;1.98;1.10;;;;;;;21.14;68.81;99156.34;4923223;29;20043;-88
2022/06/25 00:31:35;;;;;;;2.67;1.02;;;;;;;21.12;68.70;99150.31;4930570;29;20114;-88
2022/06/25 00:34:00;;;;;;;1.27;1.00;;;;;;;21.12;68.02;99157.63;4926802;29;20110;-87
2022/06/25 00:36:25;;;;;;;1.10;1.00;;;;;;;21.10;68.10;99154.31;4946183;29;20461;-88
2022/06/25 00:38:51;;;;;;;1.67;1.25;;;;;;;21.06;68.01;99157.47;4930115;29;20023;-89
2022/06/25 00:41:16;;;;;;;2.10;1.02;;;;;;;21.13;67.72;99156.56;4927240;29;20082;-88
2022/06/25 00:43:41;;;;;;;1.20;0.93;;;;;;;21.14;67.67;99158.25;4926750;29;20058;-88
2022/06/25 00:46:07;;;;;;;2.70;1.00;;;;;;;21.09;68.23;99158.09;4953313;29;20114;-88
2022/06/25 00:48:32;;;;;;;1.60;0.93;;;;;;;21.07;68.00;99166.47;4936910;29;20478;-88
2022/06/25 00:50:58;;;;;;;1.60;1.08;;;;;;;21.02;68.34;99164.44;5405380;23;20139;-88
2022/06/25 00:53:30;;;;;;;1.23;1.02;;;;;;;21.00;68.10;99166.53;4908752;29;20023;-89
2022/06/25 00:55:58;;;;;;;1.63;1.00;;;;;;;21.03;68.18;99167.97;4921662;29;20028;-89
2022/06/25 00:58:28;;;;;;;2.05;1.10;;;;;;;21.06;67.68;99172.97;4917857;29;20375;-87
2022/06/25 01:00:54;;;;;;;2.50;1.00;;;;;;;21.03;68.03;99176.97;4912442;29;20027;-89
2022/06/25 01:03:19;;;;;;;1.55;0.85;;;;;;;21.02;68.10;99174.47;4904372;29;20030;-88
2022/06/25 01:05:44;;;;;;;1.30;1.00;;;;;;;21.01;67.94;99183.69;4911648;29;20046;-89
2022/06/25 01:08:10;;;;;;;1.20;1.10;;;;;;;21.02;67.82;99180.75;4904152;29;20054;-88
2022/06/25 01:10:37;;;;;;;1.35;1.00;;;;;;;20.96;68.08;99180.81;4902167;29;20031;-88
2022/06/25 01:13:02;;;;;;;3.60;1.17;;;;;;;20.91;68.56;99183.38;4903216;29;20091;-89
2022/06/25 01:15:27;;;;;;;1.10;1.00;;;;;;;20.86;67.75;99192.19;4904414;29;20031;-88
2022/06/25 01:17:53;;;;;;;1.65;1.10;;;;;;;20.88;67.93;99181.09;4908794;29;20073;-88
2022/06/25 01:20:21;;;;;;;2.38;1.05;;;;;;;20.89;68.56;99188.19;4903792;29;20031;-89
2022/06/25 01:22:47;;;;;;;1.30;1.00;;;;;;;20.91;68.25;99192.38;4911519;29;20082;-89
2022/06/25 01:25:13;;;;;;;1.10;0.90;;;;;;;20.95;67.77;99188.13;4903489;29;20514;-88
2022/06/25 01:27:39;;;;;;;1.58;1.10;;;;;;;20.99;67.98;99196.69;4906566;29;20039;-88
2022/06/25 01:30:06;;;;;;;1.83;1.10;;;;;;;20.93;67.85;99206.56;4904269;29;20032;-89
2022/06/25 01:32:32;;;;;;;1.00;1.00;;;;;;;20.95;68.05;99203.63;4903460;29;20359;-88
2022/06/25 01:34:57;;;;;;;1.10;1.00;;;;;;;20.92;68.33;99206.78;4920896;29;20457;-89
2022/06/25 01:37:23;;;;;;;1.13;1.02;;;;;;;20.92;68.59;99213.06;4904677;29;20517;-89
2022/06/25 01:39:55;;;;;;;1.52;1.10;;;;;;;20.90;68.58;99207.00;4912181;29;20035;-90
2022/06/25 01:45:12;;;;;;;1.57;0.97;;;;;;;20.78;69.26;99197.91;4931584;29;20046;-88
2022/06/25 01:47:38;;;;;;;1.02;1.00;;;;;;;20.78;69.27;99202.50;4912373;29;20280;-89
2022/06/25 01:50:06;;;;;;;1.27;1.10;;;;;;;20.80;69.20;99198.50;4917919;29;20071;-89
2022/06/25 01:52:31;;;;;;;1.80;1.10;;;;;;;20.87;69.33;99199.31;4904080;29;20054;-90
2022/06/25 01:54:56;;;;;;;2.38;1.20;;;;;;;20.80;68.75;99195.78;4912569;29;20122;-90
2022/06/25 01:57:22;;;;;;;1.70;1.00;;;;;;;20.82;69.07;99196.41;4900368;29;20051;-90
2022/06/25 01:59:48;;;;;;;2.28;1.20;;;;;;;20.84;69.08;99202.47;4912356;29;20469;-89
2022/06/25 02:02:13;;;;;;;2.30;1.20;;;;;;;20.77;69.57;99195.41;4903264;29;20406;-90
2022/06/25 02:04:39;;;;;;;1.55;1.10;;;;;;;20.72;69.06;99204.22;4912831;29;20091;-90
2022/06/25 02:07:04;;;;;;;1.42;1.10;;;;;;;20.68;69.25;99209.28;4901157;29;20116;-88
2022/06/25 02:09:29;;;;;;;1.52;1.10;;;;;;;20.75;69.41;99211.94;4902533;29;20035;-90
2022/06/25 02:11:55;;;;;;;1.58;1.10;;;;;;;20.75;69.82;99206.50;4911291;29;20050;-89
2022/06/25 02:14:20;;;;;;;2.25;1.13;;;;;;;20.68;69.88;99209.28;4912523;29;20104;-90
2022/06/25 02:16:45;;;;;;;1.17;1.00;;;;;;;20.69;69.81;99204.66;4903868;29;20038;-89
2022/06/25 02:19:11;;;;;;;2.35;1.30;;;;;;;20.73;69.77;99219.47;4900180;29;20047;-89
2022/06/25 02:21:36;;;;;;;1.80;1.27;;;;;;;20.74;68.79;99218.41;4926928;29;20035;-89
2022/06/25 02:24:01;;;;;;;2.58;1.20;;;;;;;20.74;69.50;99218.41;4927167;29;20028;-89
2022/06/25 02:26:27;;;;;;;3.63;1.30;;;;;;;20.72;69.62;99221.34;4919939;29;20477;-89
2022/06/25 02:28:52;;;;;;;2.90;1.17;;;;;;;20.67;70.04;99221.19;4909866;29;20035;-90
2022/06/25 02:31:18;;;;;;;2.47;1.30;;;;;;;20.69;69.65;99226.41;4916333;29;20397;-89
2022/06/25 02:33:43;;;;;;;3.75;1.40;;;;;;;20.64;69.93;99228.97;4910252;29;20023;-89
2022/06/25 02:36:09;;;;;;;4.68;1.10;;;;;;;20.64;69.98;99228.97;4926273;29;20102;-90
2022/06/25 02:38:34;;;;;;;1.30;1.20;;;;;;;20.63;69.38;99235.44;4905684;29;20055;-90
2022/06/25 02:40:59;;;;;;;1.58;1.23;;;;;;;20.71;69.65;99244.16;4906123;29;20122;-89
2022/06/25 02:43:24;;;;;;;1.45;1.20;;;;;;;20.65;69.05;99242.31;4907984;29;20059;-88
2022/06/25 02:45:50;;;;;;;1.00;1.00;;;;;;;20.59;69.43;99245.09;4918049;29;20569;-89
2022/06/25 02:48:15;;;;;;;1.67;1.42;;;;;;;20.53;69.38;99252.25;4906696;29;20059;-88
2022/06/25 02:53:16;;;;;;;1.40;1.30;;;;;;;20.47;69.95;99252.28;5259168;23;20055;-89
2022/06/25 03:01:09;;;;;;;1.42;1.30;;;;;;;20.47;69.75;99263.16;4957933;28;20145;-89
2022/06/25 03:03:34;;;;;;;3.00;1.50;;;;;;;20.46;70.05;99265.03;4932005;28;20497;-89
2022/06/25 03:05:59;;;;;;;2.22;1.30;;;;;;;20.45;70.13;99255.22;4939905;28;20053;-89
2022/06/25 03:08:25;;;;;;;2.90;1.27;;;;;;;20.45;70.06;99265.25;4938965;28;20030;-88
2022/06/25 03:10:50;;;;;;;1.20;1.10;;;;;;;20.45;70.12;99262.53;4932000;28;20031;-88
2022/06/25 03:13:15;;;;;;;1.35;1.25;;;;;;;20.54;69.78;99264.78;4936808;28;20026;-88
2022/06/25 03:15:41;;;;;;;2.13;1.38;;;;;;;20.52;69.58;99258.72;4931585;28;20062;-88
2022/06/25 03:18:06;;;;;;;2.38;1.30;;;;;;;20.50;69.15;99262.72;4947631;28;20085;-89
2022/06/25 03:20:32;;;;;;;1.30;1.20;;;;;;;20.41;69.56;99262.16;4937966;28;20034;-89
2022/06/25 03:22:57;;;;;;;2.03;1.65;;;;;;;20.43;69.82;99266.31;4927904;29;20426;-88
2022/06/25 03:25:23;;;;;;;1.88;1.20;;;;;;;20.45;69.68;99259.81;4917080;29;20031;-89
2022/06/25 03:27:48;;;;;;;1.50;1.40;;;;;;;20.31;69.90;99262.56;4921567;29;20046;-89
2022/06/25 03:30:13;;;;;;;2.53;1.30;;;;;;;20.31;70.05;99259.00;4933643;29;20043;-89
2022/06/25 03:32:39;;;;;;;4.25;1.42;;;;;;;20.32;69.30;99269.66;4920062;29;20683;-89
2022/06/25 03:35:05;;;;;;;1.40;1.30;;;;;;;20.36;69.69;99273.63;4919464;29;20040;-88
2022/06/25 03:37:30;;;;;;;2.88;1.10;;;;;;;;;;4914162;29;20697;-89
2022/06/25 03:39:55;;;;;;;1.20;1.10;;;;;;;20.36;69.57;99268.22;4946973;29;20035;-89
2022/06/25 03:42:20;;;;;;;1.98;1.50;;;;;;;20.38;69.78;99273.41;4932028;29;20611;-88
2022/06/25 03:44:46;;;;;;;2.90;1.40;;;;;;;20.38;69.70;99276.13;4928317;29;20517;-88
2022/06/25 03:47:11;;;;;;;2.50;1.25;;;;;;;20.28;69.34;99262.16;4932006;29;20521;-88
2022/06/25 03:49:37;;;;;;;2.63;1.30;;;;;;;20.31;69.12;99270.72;4942215;29;20770;-89
2022/06/25 03:52:03;;;;;;;1.40;1.25;;;;;;;20.24;69.46;99272.63;4947501;28;20397;-88
2022/06/25 03:54:28;;;;;;;1.20;1.10;;;;;;;20.22;69.83;99268.47;4924082;29;20023;-88
2022/06/25 03:56:53;;;;;;;2.65;1.50;;;;;;;20.19;69.93;99266.19;4923005;29;20312;-89
2022/06/25 03:59:19;;;;;;;1.42;1.20;;;;;;;20.17;69.36;99266.41;4931785;29;20039;-88
2022/06/25 04:01:44;;;;;;;1.23;1.13;;;;;;;20.20;69.83;99268.69;4924684;29;20312;-88
2022/06/25 04:04:09;;;;;;;1.70;1.30;;;;;;;20.25;69.96;99273.47;4929979;29;20114;-88
2022/06/25 04:06:35;;;;;;;3.88;1.55;;;;;;;20.18;69.48;99273.50;4912677;29;20486;-88
2022/06/25 04:09:00;;;;;;;3.38;1.40;;;;;;;20.18;69.85;99270.78;4930729;29;20046;-89
2022/06/25 04:11:25;;;;;;;2.13;1.30;;;;;;;20.21;69.89;99277.66;4919846;29;20031;-89
2022/06/25 04:13:51;;;;;;;1.98;1.52;;;;;;;20.17;70.38;99276.44;4931249;29;20390;-88
2022/06/25 04:16:16;;;;;;;2.03;1.50;;;;;;;20.17;70.23;99279.16;4938805;29;20540;-89
2022/06/25 04:18:42;;;;;;;1.95;1.23;;;;;;;20.17;70.42;99279.16;4915103;29;20050;-89
2022/06/25 04:21:07;;;;;;;2.05;1.60;;;;;;;20.16;70.01;99283.75;4921459;29;20126;-89
2022/06/25 04:23:32;;;;;;;2.90;1.60;;;;;;;20.18;69.86;99278.09;4939312;28;20039;-88
2022/06/25 04:25:58;;;;;;;2.80;1.33;;;;;;;20.19;70.42;99288.75;4926213;29;20102;-89
2022/06/25 04:31:07;;;;;;;1.50;1.40;;;;;;;20.16;69.81;99291.06;4933214;29;20681;-90
2022/06/25 04:33:33;;;;;;;3.47;1.35;;;;;;;20.17;69.99;99293.56;4931727;29;20102;-89
2022/06/25 04:35:59;;;;;;;2.92;1.30;;;;;;;20.26;70.13;99292.25;4914649;29;20039;-89
2022/06/25 04:38:25;;;;;;;2.55;1.10;;;;;;;20.28;69.98;99300.19;4914422;29;20474;-89
2022/06/25 04:40:50;;;;;;;1.20;1.10;;;;;;;20.28;70.18;99308.34;4934128;29;20046;-89
2022/06/25 04:43:15;;;;;;;2.17;1.50;;;;;;;20.24;70.11;99307.94;4912810;29;20110;-89
2022/06/25 04:45:41;;;;;;;1.48;1.13;;;;;;;20.25;69.88;99306.88;4920054;29;20122;-89
2022/06/25 04:48:06;;;;;;;3.30;1.42;;;;;;;20.24;70.04;99309.81;4929492;28;20082;-89
2022/06/25 04:50:31;;;;;;;2.90;1.40;;;;;;;20.29;69.24;99315.44;4918596;29;20031;-89
2022/06/25 04:52:57;;;;;;;3.17;1.25;;;;;;;20.26;69.09;99311.28;4929039;29;20101;-89
2022/06/25 04:55:22;;;;;;;2.35;1.30;;;;;;;20.28;68.97;99309.16;4946698;29;20027;-89
2022/06/25 04:57:47;;;;;;;2.65;1.27;;;;;;;20.26;68.98;99313.97;4920342;29;20027;-89
2022/06/25 05:00:13;;;;;;;2.92;1.20;;;;;;;20.27;69.19;99325.69;4920737;29;20480;-88
2022/06/25 05:02:39;;;;;;;2.05;1.17;;;;;;;20.29;69.13;99323.59;4944056;29;20641;-89
2022/06/25 05:05:05;;;;;;;1.88;1.17;;;;;;;20.35;69.49;99320.03;4943459;29;20035;-89
2022/06/25 05:07:31;;;;;;;3.28;1.20;;;;;;;20.36;68.50;99325.25;4917593;29;20127;-88
2022/06/25 05:09:56;;;;;;;2.05;1.10;;;;;;;20.40;67.76;99323.78;4948402;29;20103;-89
2022/06/25 05:15:07;;;;;;;1.40;1.00;;;;;;;20.47;67.81;99331.91;4942515;29;20093;-89
2022/06/25 05:17:33;;;;;;;1.63;0.95;;;;;;;20.40;67.61;99331.09;4924480;29;20035;-89
2022/06/25 05:19:58;;;;;;;2.63;1.17;;;;;;;20.44;67.86;99332.34;4933508;29;20042;-87
2022/06/25 05:22:23;;;;;;;1.83;1.25;;;;;;;20.39;67.78;99330.28;4932909;29;20047;-88
2022/06/25 05:24:49;;;;;;;3.13;1.20;;;;;;;20.35;66.59;99333.59;4925671;29;20465;-87
2022/06/25 05:27:14;;;;;;;1.38;0.90;;;;;;;20.38;67.29;99336.72;4910615;29;20054;-88
2022/06/25 05:29:40;;;;;;;2.67;1.02;;;;;;;20.41;67.47;99338.22;4918614;29;20039;-87
2022/06/25 05:32:06;;;;;;;1.80;1.08;;;;;;;20.37;68.02;99329.63;4939582;29;20402;-88
2022/06/25 05:34:31;;;;;;;1.52;1.20;;;;;;;20.34;67.56;99340.09;4926785;29;20025;-88
2022/06/25 05:36:56;;;;;;;1.52;1.10;;;;;;;20.29;67.11;99337.16;4924715;29;20042;-87
2022/06/25 05:39:22;;;;;;;1.73;1.10;;;;;;;20.26;68.07;99346.56;4927665;29;20489;-88
2022/06/25 05:41:47;;;;;;;2.42;1.00;;;;;;;20.31;68.26;99335.06;4911936;29;20450;-88
2022/06/25 05:44:12;;;;;;;3.13;1.30;;;;;;;20.31;67.88;99341.31;4922686;29;20040;-88
2022/06/25 05:46:38;;;;;;;2.95;1.20;;;;;;;20.26;68.12;99333.00;4925170;29;20039;-86
2022/06/25 05:49:03;;;;;;;1.67;1.10;;;;;;;20.22;67.58;99350.78;4921926;29;20070;-88
2022/06/25 05:51:28;;;;;;;1.83;1.17;;;;;;;20.26;68.00;99351.16;4926683;28;20028;-88
2022/06/25 05:53:54;;;;;;;1.90;1.08;;;;;;;20.24;67.66;99350.56;4911141;29;20047;-88
2022/06/25 05:56:19;;;;;;;3.33;1.17;;;;;;;20.24;67.48;99342.41;4928950;29;20032;-87
2022/06/25 05:58:44;;;;;;;5.85;1.30;;;;;;;20.26;67.59;99351.16;4924232;29;20247;-87
2022/06/25 06:01:10;;;;;;;2.75;1.30;;;;;;;20.34;67.76;99354.50;4926946;29;20493;-88
2022/06/25 06:03:35;;;;;;;2.70;1.10;;;;;;;20.33;68.50;99351.97;4926447;29;20553;-88
2022/06/25 06:06:00;;;;;;;4.10;1.10;;;;;;;20.39;68.10;99348.41;4920875;29;20114;-89
2022/06/25 06:08:26;;;;;;;1.63;0.90;;;;;;;20.42;68.24;99354.28;4927170;29;20050;-87
2022/06/25 06:10:51;;;;;;;2.30;1.10;;;;;;;20.41;67.66;99360.78;4920783;29;20358;-88
2022/06/25 06:13:16;;;;;;;3.08;1.48;;;;;;;20.39;67.06;99360.16;4923877;29;20069;-88
2022/06/25 06:15:42;;;;;;;2.00;1.30;;;;;;;20.45;67.42;99357.63;4921335;29;20509;-87
2022/06/25 06:18:07;;;;;;;3.50;1.30;;;;;;;20.50;67.54;99360.50;4918296;29;20043;-89
2022/06/25 06:20:32;;;;;;;4.22;1.20;;;;;;;20.49;67.69;99358.84;4941865;29;20125;-87
2022/06/25 06:22:58;;;;;;;4.15;1.33;;;;;;;20.49;67.73;99358.84;4926535;29;20037;-88
2022/06/25 06:25:23;;;;;;;1.55;1.20;;;;;;;20.58;68.43;99358.38;4935424;29;20027;-87
2022/06/25 06:27:48;;;;;;;2.45;1.25;;;;;;;20.57;67.56;99367.59;4935112;29;20031;-89
2022/06/25 06:30:14;;;;;;;1.67;1.10;;;;;;;20.60;67.45;99361.72;4926741;29;20102;-88
2022/06/25 06:32:39;;;;;;;2.45;1.00;;;;;;;20.63;68.32;99365.88;4929170;29;20584;-88
2022/06/25 06:35:05;;;;;;;1.73;1.15;;;;;;;20.67;68.27;99364.38;4935092;29;20434;-87
2022/06/25 06:37:30;;;;;;;2.42;1.20;;;;;;;20.60;67.24;99367.16;4944911;29;20035;-88
2022/06/25 06:39:56;;;;;;;2.40;1.10;;;;;;;20.61;67.46;99363.38;4935412;29;20584;-88
2022/06/25 06:42:21;;;;;;;4.03;1.10;;;;;;;20.60;67.67;99371.75;4928398;29;20036;-87
2022/06/25 06:44:46;;;;;;;3.92;1.30;;;;;;;20.61;67.90;99374.25;4924690;29;20034;-87
2022/06/25 06:47:12;;;;;;;2.20;1.15;;;;;;;20.68;67.70;99369.59;4925782;29;20073;-88
2022/06/25 06:49:38;;;;;;;3.40;1.17;;;;;;;20.72;67.31;99365.41;4951149;29;20070;-88
2022/06/25 06:52:04;;;;;;;2.50;1.40;;;;;;;20.71;67.29;99365.63;4934674;29;20413;-88
2022/06/25 06:54:29;;;;;;;1.55;1.05;;;;;;;20.65;67.60;99364.59;4945574;29;20437;-89
2022/06/25 06:56:55;;;;;;;2.35;1.10;;;;;;;20.63;67.29;99360.44;4951621;29;20130;-89
2022/06/25 06:59:21;;;;;;;1.90;1.15;;;;;;;20.63;67.13;99361.28;4926613;29;20058;-88
2022/06/25 07:01:46;;;;;;;2.17;1.10;;;;;;;20.68;67.58;99361.44;4935829;29;20474;-87
2022/06/25 07:04:11;;;;;;;2.90;1.20;;;;;;;20.77;68.08;99362.03;4933302;29;20063;-88
2022/06/25 07:06:37;;;;;;;3.00;1.27;;;;;;;20.73;67.97;99358.91;4933454;29;20066;-88
2022/06/25 07:09:03;;;;;;;1.52;1.00;;;;;;;20.74;67.81;99371.44;4939091;29;20074;-86
2022/06/25 07:11:28;;;;;;;1.92;1.17;;;;;;;20.81;67.53;99373.28;4933155;28;20026;-87
2022/06/25 07:14:04;;;;;;;1.98;1.13;;;;;;;20.80;67.56;99369.75;4944885;29;20035;-87
2022/06/25 07:16:31;;;;;;;3.17;1.15;;;;;;;20.80;67.91;99372.47;4926141;29;20024;-89
2022/06/25 07:18:58;;;;;;;1.83;1.23;;;;;;;20.80;67.29;99367.03;4941922;29;20035;-88
2022/06/25 07:21:24;;;;;;;2.13;1.33;;;;;;;20.80;67.71;99372.47;4950561;28;20737;-89
2022/06/25 07:23:49;;;;;;;6.03;4.10;;;;;;;20.83;68.01;99365.78;4945181;29;20129;-88
2022/06/25 07:26:17;;;;;;;3.78;1.65;;;;;;;20.85;67.76;99360.97;4943261;29;20079;-87
2022/06/25 07:28:43;;;;;;;3.55;1.20;;;;;;;20.84;67.92;99376.44;4937355;29;20034;-86
2022/06/25 07:31:08;;;;;;;1.50;1.10;;;;;;;20.90;68.28;99372.00;4937429;29;20039;-87
2022/06/25 07:33:34;;;;;;;3.17;1.45;;;;;;;20.91;67.97;99371.78;4934654;29;20091;-87
2022/06/25 07:35:59;;;;;;;3.63;1.30;;;;;;;20.94;67.50;99374.06;4934427;29;20449;-86
2022/06/25 07:38:24;;;;;;;3.72;1.20;;;;;;;20.96;67.16;99371.13;4915853;29;20762;-86
2022/06/25 07:40:50;;;;;;;3.10;1.23;;;;;;;20.96;67.71;99371.13;4937981;29;20031;-86
2022/06/25 07:43:16;;;;;;;2.05;1.20;;;;;;;20.91;67.33;99370.94;4928977;29;20031;-88
2022/06/25 07:45:42;;;;;;;2.55;1.13;;;;;;;20.86;67.14;99377.06;4921938;29;20070;-87
2022/06/25 07:48:07;;;;;;;3.03;1.38;;;;;;;20.84;67.68;99384.59;4922208;29;20031;-88
2022/06/25 07:53:16;;;;;;;2.33;1.20;;;;;;;20.75;67.85;99383.16;4953731;28;20058;-86
2022/06/25 07:55:42;;;;;;;1.88;1.17;;;;;;;20.74;67.20;99381.47;4937830;29;20466;-86
2022/06/25 07:58:07;;;;;;;3.15;1.30;;;;;;;20.78;67.57;99382.72;4937840;29;20038;-88
2022/06/25 08:00:33;;;;;;;2.30;1.10;;;;;;;20.86;67.71;99387.09;4931210;29;20124;-87
2022/06/25 08:02:58;;;;;;;1.17;1.10;;;;;;;20.79;67.19;99373.50;4937476;29;20019;-87
2022/06/25 08:05:24;;;;;;;5.30;1.27;;;;;;;20.78;66.69;99371.00;4926623;29;20079;-89
2022/06/25 08:07:49;;;;;;;3.17;1.13;;;;;;;20.77;67.37;99372.06;4932633;29;20099;-88
2022/06/25 08:10:15;;;;;;;3.63;1.23;;;;;;;20.77;67.07;99369.34;4928470;29;20056;-87
2022/06/25 08:12:40;;;;;;;2.45;1.20;;;;;;;20.79;67.41;99372.69;4927915;29;20089;-88
2022/06/25 08:15:07;;;;;;;2.00;1.13;;;;;;;20.85;68.02;99374.56;4948853;29;20067;-88
2022/06/25 08:17:34;;;;;;;2.13;1.50;;;;;;;20.87;67.50;99380.59;4936656;29;20035;-87
2022/06/25 08:19:59;;;;;;;4.22;2.17;;;;;;;20.92;68.29;99386.22;4929745;29;20035;-88
2022/06/25 08:22:25;;;;;;;4.57;1.80;;;;;;;20.90;67.39;99375.56;4920340;29;20023;-87
2022/06/25 08:24:50;;;;;;;1.70;1.45;;;;;;;20.98;67.26;99374.47;4926533;29;20028;-87
2022/06/25 08:27:15;;;;;;;3.10;1.70;;;;;;;21.04;66.78;99388.00;4921057;29;20074;-87
2022/06/25 08:29:41;;;;;;;2.53;1.10;;;;;;;21.09;67.73;99390.06;4937330;29;20190;-86
2022/06/25 08:32:06;;;;;;;4.40;1.30;;;;;;;21.03;66.65;99383.63;4936914;29;20042;-88
2022/06/25 08:34:31;;;;;;;3.40;1.23;;;;;;;20.99;67.46;99387.00;4925128;29;20045;-88
2022/06/25 08:36:57;;;;;;;3.55;1.40;;;;;;;20.99;67.06;99387.84;4935462;29;20035;-86
2022/06/25 08:39:22;;;;;;;4.68;1.55;;;;;;;21.00;66.72;99380.50;4916485;29;20039;-89
2022/06/25 08:41:48;;;;;;;3.38;1.33;;;;;;;21.01;66.78;99380.28;4937410;29;20054;-87
2022/06/25 08:44:13;;;;;;;4.35;1.30;;;;;;;21.01;67.04;99391.16;4929684;29;20493;-88
2022/06/25 08:46:39;;;;;;;2.50;1.40;;;;;;;21.01;66.45;99388.44;4929658;29;20114;-89
2022/06/25 08:49:05;;;;;;;2.60;1.05;;;;;;;20.99;65.95;99387.00;4942914;29;20067;-88
2022/06/25 08:51:32;;;;;;;2.25;1.10;;;;;;;21.01;66.77;99383.00;4927589;29;20110;-86
2022/06/25 08:53:58;;;;;;;3.13;1.40;;;;;;;21.05;66.84;99384.22;4925409;29;21082;-89
2022/06/25 08:56:26;;;;;;;3.33;1.23;;;;;;;21.09;66.87;99381.91;4944761;28;20058;-86
2022/06/25 08:58:52;;;;;;;3.53;1.30;;;;;;;21.07;67.02;99381.28;4942404;29;20038;-87
2022/06/25 09:01:17;;;;;;;1.50;1.00;;;;;;;21.07;66.83;99386.72;4952339;29;20039;-87
2022/06/25 09:03:43;;;;;;;2.28;1.20;;;;;;;21.11;67.03;99382.50;4934578;29;20070;-87
2022/06/25 09:06:17;;;;;;;2.75;1.23;;;;;;;21.19;66.81;99382.25;4953055;29;20051;-86
2022/06/25 09:08:43;;;;;;;2.17;1.20;;;;;;;21.18;66.08;99375.13;4925991;29;20027;-86
2022/06/25 09:11:09;;;;;;;2.85;1.38;;;;;;;21.22;66.53;99378.25;4952331;29;20031;-88
2022/06/25 09:13:35;;;;;;;1.77;1.00;;;;;;;21.18;65.80;99375.13;4936955;29;20098;-86
2022/06/25 09:16:01;;;;;;;1.90;1.00;;;;;;;21.23;66.47;99372.63;4943242;28;20045;-86
2022/06/25 09:18:26;;;;;;;2.72;1.15;;;;;;;21.24;67.04;99374.28;4935206;29;20122;-70
2022/06/25 09:21:08;;;;;;;2.35;1.00;;;;;;;21.28;66.56;99377.41;4950716;29;20488;-69
2022/06/25 09:23:35;;;;;;;3.08;1.17;;;;;;;21.26;65.66;99366.72;4947110;29;20055;-74
2022/06/25 09:26:11;;;;;;;4.40;1.42;;;;;;;21.29;65.64;99368.22;4946207;29;20482;-71
2022/06/25 09:28:40;;;;;;;2.72;1.20;;;;;;;21.29;65.27;99365.50;4947817;29;20479;-73
2022/06/25 09:31:07;;;;;;;2.30;1.15;;;;;;;21.37;64.92;99370.66;4947573;29;20032;-70
2022/06/25 09:33:33;;;;;;;1.80;1.08;;;;;;;21.37;64.71;99365.22;4948734;29;20027;-69
2022/06/25 09:35:59;;;;;;;2.53;1.00;;;;;;;21.40;64.71;99367.47;4948368;28;20130;-70
2022/06/25 09:38:25;;;;;;;2.08;1.10;;;;;;;21.43;64.53;99363.47;4950232;29;20845;-73
2022/06/25 09:40:56;;;;;;;2.97;1.10;;;;;;;21.46;64.51;99363.03;4948420;29;20236;-69
2022/06/25 09:43:23;;;;;;;3.33;1.40;;;;;;;21.47;64.99;99367.41;4940444;29;20059;-73
2022/06/25 09:45:52;;;;;;;1.88;1.10;;;;;;;21.47;64.85;99360.09;4949178;29;20034;-72
2022/06/25 09:48:24;;;;;;;2.03;1.10;;;;;;;21.53;64.58;99358.34;4950253;29;20023;-70
2022/06/25 09:51:09;;;;;;;1.90;1.00;;;;;;;21.56;64.92;99363.34;4944285;29;20128;-71
2022/06/25 09:53:53;;;;;;;2.10;1.10;;;;;;;21.55;65.14;99367.97;4915396;29;20557;-69
2022/06/25 09:56:26;;;;;;;4.10;1.10;;;;;;;21.59;65.78;99369.19;4942813;29;20276;-71
2022/06/25 09:58:53;;;;;;;2.28;1.10;;;;;;;21.58;64.71;99363.97;4943706;29;20023;-70
2022/06/25 10:01:20;;;;;;;3.33;1.10;;;;;;;21.59;64.09;99371.06;4932073;29;20023;-71
2022/06/25 10:03:46;;;;;;;1.80;0.90;;;;;;;21.60;64.27;99373.56;4945708;29;20439;-70
2022/06/25 10:06:16;;;;;;;1.42;1.02;;;;;;;21.62;64.15;99373.34;4943350;29;20090;-70
2022/06/25 10:08:55;;;;;;;1.65;0.88;;;;;;;21.63;63.83;99369.56;4936687;29;20046;-72
2022/06/25 10:11:23;;;;;;;1.77;1.10;;;;;;;21.64;62.60;99363.91;4943156;29;20046;-70
2022/06/25 10:13:49;;;;;;;1.92;0.93;;;;;;;21.68;61.87;99367.00;4943611;29;20077;-69
2022/06/25 10:16:18;;;;;;;2.38;1.08;;;;;;;21.72;62.61;99370.09;4927957;29;20701;-69
2022/06/25 10:18:44;;;;;;;2.60;0.82;;;;;;;21.74;63.20;99376.16;4944871;29;20027;-72
2022/06/25 10:21:10;;;;;;;2.13;1.02;;;;;;;21.73;62.54;99371.78;4944916;28;20051;-78
2022/06/25 10:23:37;;;;;;;2.67;1.23;;;;;;;21.76;63.31;99369.47;4928245;29;20023;-72
2022/06/25 10:26:03;;;;;;;1.90;1.10;;;;;;;21.76;62.75;99360.44;4940990;29;20099;-69
2022/06/25 10:28:29;;;;;;;1.10;1.02;;;;;;;21.79;63.48;99363.56;4935881;29;20397;-69
2022/06/25 10:30:58;;;;;;;2.00;1.00;;;;;;;21.81;62.56;99366.06;4944390;29;20027;-70
2022/06/25 10:33:26;;;;;;;2.42;1.17;;;;;;;21.83;60.88;99366.66;4945164;29;20032;-77
2022/06/25 10:35:54;;;;;;;1.13;0.90;;;;;;;21.85;61.26;99361.81;4944316;29;20035;-73
2022/06/25 10:38:21;;;;;;;2.38;0.90;;;;;;;21.84;60.84;99363.72;4944734;29;20764;-70
2022/06/25 10:40:59;;;;;;;1.85;0.90;;;;;;;21.86;60.54;99355.31;4940623;29;20051;-69
2022/06/25 10:43:37;;;;;;;3.88;1.02;;;;;;;21.88;60.91;99353.22;4941960;29;20046;-69
2022/06/25 10:46:29;;;;;;;3.50;1.30;;;;;;;21.90;61.91;99360.09;4942998;29;20505;-74
2022/06/25 10:49:06;;;;;;;2.50;1.00;;;;;;;21.91;62.66;99359.03;4921382;29;20568;-68
2022/06/25 10:52:02;;;;;;;1.70;1.00;;;;;;;21.95;62.59;99362.97;4944282;28;20023;-72
2022/06/25 10:54:27;;;;;;;1.80;1.10;;;;;;;21.99;63.08;99364.19;4927662;29;20047;-69
2022/06/25 10:57:00;;;;;;;5.38;1.23;;;;;;;21.98;63.07;99367.97;4944497;29;20034;-74
2022/06/25 10:59:31;;;;;;;2.38;1.08;;;;;;;21.97;62.28;99358.13;4946587;29;20133;-70
2022/06/25 11:01:58;;;;;;;1.33;1.20;;;;;;;22.00;63.06;99359.56;4947988;29;20042;-72
2022/06/25 11:04:26;;;;;;;2.78;1.17;;;;;;;22.02;62.60;99365.63;4932032;29;20031;-70
2022/06/25 11:06:52;;;;;;;1.73;1.27;;;;;;;22.02;62.31;99365.63;4948951;29;20145;-69
2022/06/25 11:09:19;;;;;;;3.13;1.25;;;;;;;22.03;63.21;99366.44;4948729;29;20049;-75
2022/06/25 11:11:46;;;;;;;2.95;1.00;;;;;;;22.05;62.05;99361.63;4946041;29;20031;-70
2022/06/25 11:14:17;;;;;;;2.55;1.25;;;;;;;22.06;62.74;99363.28;4947962;29;20053;-69
2022/06/25 11:16:43;;;;;;;3.83;1.20;;;;;;;22.08;62.52;99359.28;4941997;29;20023;-69
2022/06/25 11:19:08;;;;;;;2.20;1.10;;;;;;;22.12;61.73;99363.22;4946177;28;20477;-70
2022/06/25 11:21:42;;;;;;;3.45;1.20;;;;;;;22.15;62.20;99365.50;4927676;29;20130;-76
2022/06/25 11:24:18;;;;;;;2.03;1.20;;;;;;;22.18;63.16;99365.03;4949010;29;20034;-69
2022/06/25 11:29:33;;;;;;;1.65;1.00;;;;;;;22.25;62.51;99371.25;4947545;29;20482;-69
2022/06/25 11:31:59;;;;;;;2.97;1.00;;;;;;;22.25;61.84;99368.53;4945460;29;20534;-70
2022/06/25 11:34:25;;;;;;;3.08;1.10;;;;;;;22.25;62.25;99375.88;4947754;29;20050;-69
2022/06/25 11:37:04;;;;;;;1.35;1.10;;;;;;;22.25;61.76;99367.72;4945138;29;20035;-74
2022/06/25 11:39:29;;;;;;;1.40;1.10;;;;;;;22.26;61.62;99366.66;4947726;29;20099;-69
2022/06/25 11:41:55;;;;;;;1.67;1.30;;;;;;;22.27;62.43;99371.88;4948425;29;20500;-69
2022/06/25 11:44:21;;;;;;;1.35;1.10;;;;;;;22.28;61.73;99368.09;4947025;29;20906;-69
2022/06/25 11:46:48;;;;;;;2.92;1.35;;;;;;;22.29;63.09;99377.09;4944720;29;20645;-68
2022/06/25 11:49:14;;;;;;;1.92;1.40;;;;;;;22.32;62.59;99371.19;4946018;29;20035;-69
2022/06/25 11:51:47;;;;;;;2.38;1.30;;;;;;;22.35;62.58;99368.00;4947433;28;20394;-70
2022/06/25 11:54:13;;;;;;;3.38;1.33;;;;;;;22.38;62.01;99372.97;4930368;29;20902;-70
2022/06/25 11:56:47;;;;;;;1.30;1.10;;;;;;;22.41;63.11;99374.41;4948422;29;20031;-70
2022/06/25 11:59:12;;;;;;;2.08;1.02;;;;;;;22.43;63.16;99377.75;4948743;28;20106;-69